Time;durP1;ratioP1;P1;durP2;ratioP2;P2;SDS_P1;SDS_P2;PMS_P1;PMS_P2;Temp;Humidity;BMP_temperature;BMP_pressure;BME280_temperature;BME280_humidity;BME280_pressure;Samples;Min_cycle;Max_cycle;Signal;HPM_P1;HPM_P2
2023/04/05 00:01:54;;;;;;;24.55;17.52;;;2.00;99.90;;;;;;4893218;29;20039;-82
2023/04/05 00:04:22;;;;;;;26.98;17.38;;;2.00;99.90;;;;;;4877643;29;20029;-80
2023/04/05 00:06:52;;;;;;;25.00;16.33;;;2.00;99.90;;;;;;4893044;29;20111;-79
2023/04/05 00:09:19;;;;;;;24.60;16.88;;;2.00;99.90;;;;;;4892561;29;20056;-79
2023/04/05 00:11:46;;;;;;;27.27;17.30;;;2.00;99.90;;;;;;4893292;29;20584;-80
2023/04/05 00:14:12;;;;;;;24.90;16.17;;;2.00;99.90;;;;;;4893030;29;20045;-80
2023/04/05 00:16:39;;;;;;;23.42;14.52;;;2.00;99.90;;;;;;4968142;28;20035;-78
2023/04/05 00:19:05;;;;;;;24.42;16.65;;;2.10;99.90;;;;;;4971132;28;20043;-81
2023/04/05 00:21:56;;;;;;;26.08;17.20;;;2.00;99.90;;;;;;4971490;28;20031;-80
2023/04/05 00:24:42;;;;;;;25.10;15.82;;;2.00;99.90;;;;;;4971183;28;20041;-80
2023/04/05 00:27:13;;;;;;;24.42;16.55;;;2.10;99.90;;;;;;4971080;28;20031;-80
2023/04/05 00:29:40;;;;;;;24.58;16.48;;;2.10;99.90;;;;;;4971047;28;20039;-76
2023/04/05 00:32:06;;;;;;;24.15;16.65;;;2.10;99.90;;;;;;4971075;28;20114;-80
2023/04/05 00:34:32;;;;;;;26.80;16.48;;;2.10;99.90;;;;;;4953851;28;20038;-80
2023/04/05 00:36:59;;;;;;;25.45;16.15;;;2.10;99.90;;;;;;4972437;28;20026;-79
2023/04/05 00:39:25;;;;;;;22.65;15.68;;;2.10;99.90;;;;;;4938112;28;20395;-80
2023/04/05 00:42:07;;;;;;;25.83;15.65;;;2.10;99.90;;;;;;4959347;28;20078;-80
2023/04/05 00:44:37;;;;;;;27.10;15.85;;;2.10;99.90;;;;;;4973485;28;20375;-81
2023/04/05 00:47:11;;;;;;;25.02;15.98;;;2.20;99.90;;;;;;4940428;29;20023;-80
2023/04/05 00:49:40;;;;;;;28.83;16.48;;;2.20;99.90;;;;;;4972212;28;20471;-81
2023/04/05 00:52:07;;;;;;;22.90;16.15;;;2.10;99.90;;;;;;4970589;28;20093;-80
2023/04/05 00:54:33;;;;;;;28.83;17.08;;;2.10;99.90;;;;;;4940735;28;20035;-82
2023/04/05 00:57:01;;;;;;;26.70;17.60;;;2.20;99.90;;;;;;4974158;28;20062;-80
2023/04/05 00:59:27;;;;;;;25.00;17.15;;;2.20;99.90;;;;;;4940212;29;20032;-79
2023/04/05 01:02:16;;;;;;;23.55;15.05;;;2.10;99.90;;;;;;4955593;28;20035;-77
2023/04/05 01:04:48;;;;;;;23.42;16.23;;;2.10;99.90;;;;;;4971763;28;20022;-73
2023/04/05 01:07:29;;;;;;;25.95;16.65;;;2.20;99.90;;;;;;4975105;28;20538;-77
2023/04/05 01:09:59;;;;;;;26.27;17.63;;;2.10;99.90;;;;;;4972384;28;20022;-81
2023/04/05 01:12:51;;;;;;;27.77;17.65;;;2.20;99.90;;;;;;4957108;28;20066;-73
2023/04/05 01:15:17;;;;;;;24.50;17.98;;;2.20;99.90;;;;;;4941291;28;20042;-79
2023/04/05 01:17:47;;;;;;;30.00;18.80;;;2.10;99.90;;;;;;4974312;28;20069;-80
2023/04/05 01:20:14;;;;;;;26.05;17.10;;;2.10;99.90;;;;;;4940227;28;20131;-80
2023/04/05 01:22:54;;;;;;;26.13;16.80;;;2.20;99.90;;;;;;4973956;28;20015;-76
2023/04/05 01:26:15;;;;;;;27.02;16.95;;;2.20;99.90;;;;;;4973804;28;20027;-80
2023/04/05 01:29:18;;;;;;;21.63;14.77;;;2.20;99.90;;;;;;4973277;28;20026;-80
2023/04/05 01:32:07;;;;;;;26.67;15.68;;;2.20;99.90;;;;;;4939093;28;20483;-81
2023/04/05 01:35:00;;;;;;;23.58;15.20;;;2.20;99.90;;;;;;4937450;29;20554;-80
2023/04/05 01:37:40;;;;;;;19.77;13.35;;;2.20;99.90;;;;;;4972677;28;20425;-73
2023/04/05 01:40:52;;;;;;;22.55;13.23;;;2.20;99.90;;;;;;4971435;28;20022;-80
2023/04/05 01:43:23;;;;;;;22.38;13.50;;;2.10;99.90;;;;;;4960711;28;20039;-76
2023/04/05 01:45:57;;;;;;;22.50;13.02;;;2.10;99.90;;;;;;4939175;29;20118;-81
2023/04/05 01:48:26;;;;;;;19.85;12.60;;;2.10;99.90;;;;;;4973209;28;20494;-79
2023/04/05 01:51:11;;;;;;;20.92;12.55;;;2.10;99.90;;;;;;4955865;28;20376;-79
2023/04/05 01:53:40;;;;;;;19.98;12.40;;;2.10;99.90;;;;;;4970127;28;20035;-80
2023/04/05 01:56:38;;;;;;;19.60;11.57;;;2.00;99.90;;;;;;4974034;28;20046;-78
2023/04/05 01:59:33;;;;;;;21.45;13.25;;;2.00;99.90;;;;;;4938053;28;20020;-78
2023/04/05 02:02:12;;;;;;;19.08;11.20;;;2.10;99.90;;;;;;4972875;28;20027;-79
2023/04/05 02:05:16;;;;;;;19.27;10.38;;;2.00;99.90;;;;;;4939286;28;20483;-80
2023/04/05 02:11:49;;;;;;;;;;;;;;;;;;;;;
2023/04/05 02:17:52;;;;;;;23.30;14.20;;;1.90;99.90;;;;;;4909465;29;20033;-80
2023/04/05 02:20:21;;;;;;;23.10;15.32;;;1.90;99.90;;;;;;4892306;29;20041;-76
2023/04/05 02:22:50;;;;;;;26.15;15.80;;;1.90;99.90;;;;;;4878142;29;20033;-80
2023/04/05 02:25:45;;;;;;;24.25;15.82;;;1.90;99.90;;;;;;4895987;29;20027;-78
2023/04/05 02:28:17;;;;;;;23.33;14.88;;;1.90;99.90;;;;;;4892576;29;20483;-77
2023/04/05 02:30:55;;;;;;;25.17;14.70;;;1.90;99.90;;;;;;4880404;29;20032;-79
2023/04/05 02:33:22;;;;;;;24.23;15.50;;;1.90;99.90;;;;;;4896251;29;20432;-79
2023/04/05 02:36:27;;;;;;;24.77;15.35;;;1.90;99.90;;;;;;4895972;29;20104;-78
2023/04/05 02:39:04;;;;;;;23.65;15.13;;;1.90;99.90;;;;;;4879383;29;20052;-78
2023/04/05 02:41:30;;;;;;;22.73;14.57;;;1.90;99.90;;;;;;4880288;29;20043;-78
2023/04/05 02:43:56;;;;;;;26.30;14.95;;;1.90;99.90;;;;;;4897090;29;20052;-78
2023/04/05 02:46:21;;;;;;;22.98;14.35;;;1.90;99.90;;;;;;4917265;29;20507;-78
2023/04/05 02:48:47;;;;;;;26.02;14.32;;;1.90;99.90;;;;;;4946767;28;20146;-78
2023/04/05 02:51:15;;;;;;;23.60;14.32;;;1.90;99.90;;;;;;4984000;28;20057;-79
2023/04/05 02:53:45;;;;;;;25.83;14.55;;;1.90;99.90;;;;;;4975199;28;20045;-80
2023/04/05 02:56:14;;;;;;;22.80;14.80;;;1.90;99.90;;;;;;4956440;28;20077;-80
2023/04/05 02:58:42;;;;;;;23.65;14.43;;;1.90;99.90;;;;;;4956412;28;20135;-76
2023/04/05 03:01:09;;;;;;;19.63;14.73;;;1.80;99.90;;;;;;4959079;28;20126;-80
2023/04/05 03:03:36;;;;;;;22.55;13.57;;;1.90;99.90;;;;;;4974213;28;20022;-79
2023/04/05 03:06:12;;;;;;;23.90;14.43;;;1.90;99.90;;;;;;4974794;28;20031;-79
2023/04/05 03:08:47;;;;;;;23.00;14.30;;;1.90;99.90;;;;;;4956053;28;20086;-79
2023/04/05 03:11:16;;;;;;;24.00;14.05;;;1.90;99.90;;;;;;4956282;28;20038;-76
2023/04/05 03:13:46;;;;;;;23.63;14.60;;;1.90;99.90;;;;;;4956036;28;20019;-79
2023/04/05 03:16:24;;;;;;;24.08;14.25;;;1.90;99.90;;;;;;4972238;28;20049;-74
2023/04/05 03:18:50;;;;;;;26.38;14.80;;;1.90;99.90;;;;;;4973422;28;20033;-77
2023/04/05 03:21:17;;;;;;;24.45;14.45;;;1.90;99.90;;;;;;4971526;28;20039;-72
2023/04/05 03:23:55;;;;;;;24.52;14.27;;;1.90;99.90;;;;;;4956018;28;20054;-74
2023/04/05 03:26:26;;;;;;;23.27;14.60;;;1.90;99.90;;;;;;4955984;28;20097;-79
2023/04/05 03:28:52;;;;;;;24.33;15.55;;;1.90;99.90;;;;;;4973331;28;20023;-79
2023/04/05 03:31:28;;;;;;;22.58;14.68;;;1.80;99.90;;;;;;4955751;28;20038;-79
2023/04/05 03:33:57;;;;;;;26.77;16.15;;;1.90;99.90;;;;;;4961588;28;20554;-77
2023/04/05 03:36:40;;;;;;;29.45;17.23;;;1.90;99.90;;;;;;4978727;28;20561;-78
2023/04/05 03:39:11;;;;;;;23.93;15.83;;;1.80;99.90;;;;;;4977550;28;20030;-76
2023/04/05 03:41:38;;;;;;;28.45;16.25;;;1.80;99.90;;;;;;4974493;28;20027;-81
2023/04/05 03:44:06;;;;;;;29.55;18.08;;;1.90;99.90;;;;;;4955565;28;20043;-79
2023/04/05 03:46:33;;;;;;;26.65;16.73;;;1.80;99.90;;;;;;4972879;28;20041;-77
2023/04/05 03:49:00;;;;;;;29.65;18.08;;;1.90;99.90;;;;;;4975504;28;20059;-79
2023/04/05 03:51:26;;;;;;;33.25;19.40;;;1.80;99.90;;;;;;4959332;28;20026;-75
2023/04/05 03:53:52;;;;;;;30.42;17.42;;;1.80;99.90;;;;;;4974076;28;20062;-79
2023/04/05 03:56:21;;;;;;;27.90;15.38;;;1.80;99.90;;;;;;4956140;28;20077;-79
2023/04/05 03:58:49;;;;;;;21.23;13.95;;;1.80;99.90;;;;;;4957355;28;20115;-79
2023/04/05 04:01:17;;;;;;;24.33;14.68;;;1.90;99.90;;;;;;4958379;28;20039;-79
2023/04/05 04:03:43;;;;;;;23.27;14.75;;;1.90;99.90;;;;;;4975846;28;20074;-78
2023/04/05 04:06:10;;;;;;;25.58;15.10;;;1.90;99.90;;;;;;4978404;28;20023;-74
2023/04/05 04:08:36;;;;;;;27.83;15.88;;;1.90;99.90;;;;;;4978714;28;20031;-79
2023/04/05 04:11:02;;;;;;;27.33;16.95;;;1.80;99.90;;;;;;4965323;28;20545;-77
2023/04/05 04:13:34;;;;;;;25.23;17.17;;;1.90;99.90;;;;;;4975040;28;20490;-77
2023/04/05 04:16:20;;;;;;;26.40;18.67;;;1.90;99.90;;;;;;4924086;29;20066;-79
2023/04/05 04:19:12;;;;;;;27.48;18.27;;;1.90;99.90;;;;;;4903726;29;20445;-79
2023/04/05 04:22:03;;;;;;;28.50;17.83;;;1.90;99.90;;;;;;4850745;29;20078;-80
2023/04/05 04:25:03;;;;;;;28.83;16.67;;;1.90;99.90;;;;;;4811793;29;20047;-79
2023/04/05 04:27:42;;;;;;;21.08;12.15;;;2.00;99.90;;;;;;4813494;29;20091;-77
2023/04/05 04:30:26;;;;;;;20.75;11.60;;;1.90;99.90;;;;;;4822715;29;20031;-77
2023/04/05 04:33:11;;;;;;;14.77;8.25;;;1.90;99.90;;;;;;4806451;29;20551;-75
2023/04/05 04:36:06;;;;;;;13.50;8.07;;;2.00;99.90;;;;;;4769333;30;20055;-77
2023/04/05 04:38:53;;;;;;;13.90;7.75;;;2.00;99.90;;;;;;4769875;30;20132;-74
2023/04/05 04:41:45;;;;;;;16.45;7.15;;;1.90;99.90;;;;;;4769781;30;20158;-78
2023/04/05 04:44:47;;;;;;;19.80;8.48;;;2.00;99.90;;;;;;4769478;30;20052;-78
2023/04/05 04:47:33;;;;;;;24.52;12.70;;;2.00;99.90;;;;;;4763583;30;20108;-78
2023/04/05 04:50:06;;;;;;;25.58;14.63;;;2.00;99.90;;;;;;4769606;30;20486;-78
2023/04/05 04:52:32;;;;;;;20.95;11.63;;;2.10;99.90;;;;;;4771772;30;20064;-74
2023/04/05 04:55:01;;;;;;;20.35;12.35;;;2.10;99.90;;;;;;4787437;29;20059;-78
2023/04/05 04:57:27;;;;;;;14.02;8.70;;;2.10;99.90;;;;;;4787751;30;20039;-77
2023/04/05 04:59:54;;;;;;;16.55;9.95;;;2.10;99.90;;;;;;4861592;29;20043;-78
2023/04/05 05:02:23;;;;;;;17.95;10.57;;;2.10;99.90;;;;;;4916777;29;20071;-78
2023/04/05 05:04:50;;;;;;;15.75;10.05;;;2.10;99.90;;;;;;4916731;29;20144;-71
2023/04/05 05:07:17;;;;;;;20.02;11.73;;;2.10;99.90;;;;;;4916260;29;20051;-78
2023/04/05 05:09:43;;;;;;;23.17;13.90;;;2.10;99.90;;;;;;4916972;29;20064;-78
2023/04/05 05:12:09;;;;;;;33.90;18.80;;;2.20;99.90;;;;;;4925712;28;20066;-78
2023/04/05 05:14:35;;;;;;;28.23;17.80;;;2.10;99.90;;;;;;4976403;28;20386;-77
2023/04/05 05:17:01;;;;;;;27.67;15.63;;;2.10;99.90;;;;;;4976362;28;20041;-76
2023/04/05 05:19:31;;;;;;;23.50;13.95;;;2.10;99.90;;;;;;4958348;28;20039;-78
2023/04/05 05:21:58;;;;;;;31.58;17.48;;;2.20;99.90;;;;;;4958334;28;20031;-76
2023/04/05 05:24:23;;;;;;;24.17;14.50;;;2.20;99.90;;;;;;4975363;28;20080;-78
2023/04/05 05:26:50;;;;;;;20.73;10.18;;;2.30;99.90;;;;;;4975273;28;20018;-78
2023/04/05 05:29:17;;;;;;;17.50;9.70;;;2.30;99.90;;;;;;4975502;28;20026;-75
2023/04/05 05:31:44;;;;;;;17.73;10.68;;;2.30;99.90;;;;;;4958194;28;20031;-76
2023/04/05 05:34:11;;;;;;;21.27;11.45;;;2.30;99.90;;;;;;4975310;28;20027;-76
2023/04/05 05:36:46;;;;;;;18.55;11.25;;;2.40;99.90;;;;;;4957996;28;20038;-74
2023/04/05 05:39:12;;;;;;;19.05;10.52;;;2.40;99.90;;;;;;4975607;28;20026;-76
2023/04/05 05:41:38;;;;;;;15.00;8.65;;;2.50;99.90;;;;;;4975251;28;20553;-78
2023/04/05 05:44:05;;;;;;;16.65;9.80;;;2.50;99.90;;;;;;4975423;28;20070;-76
2023/04/05 05:46:31;;;;;;;28.25;10.55;;;2.60;99.90;;;;;;4975216;28;20098;-75
2023/04/05 05:48:57;;;;;;;15.23;9.38;;;2.60;99.90;;;;;;4975349;28;20034;-78
2023/04/05 05:51:23;;;;;;;16.17;8.65;;;2.70;99.90;;;;;;4975251;28;20030;-75
2023/04/05 05:53:49;;;;;;;25.30;9.82;;;2.80;99.90;;;;;;4975535;28;20557;-76
2023/04/05 05:56:15;;;;;;;14.65;8.88;;;2.90;99.90;;;;;;4975476;28;20067;-76
2023/04/05 05:58:40;;;;;;;16.92;8.95;;;3.00;99.90;;;;;;4975837;28;20037;-76
2023/04/05 06:01:07;;;;;;;18.35;9.45;;;3.00;99.90;;;;;;4975314;28;20030;-78
2023/04/05 06:03:33;;;;;;;16.70;8.73;;;3.20;99.90;;;;;;4974251;28;20146;-78
2023/04/05 06:06:02;;;;;;;16.67;8.65;;;3.30;99.90;;;;;;4975239;28;20023;-76
2023/04/05 06:08:27;;;;;;;12.40;7.43;;;3.40;99.90;;;;;;4975461;28;20035;-74
2023/04/05 06:10:54;;;;;;;14.15;6.60;;;3.40;99.90;;;;;;4974222;28;20021;-77
2023/04/05 06:13:23;;;;;;;15.25;7.32;;;3.50;99.90;;;;;;4974937;28;20105;-77
2023/04/05 06:15:49;;;;;;;14.50;6.88;;;3.60;99.90;;;;;;4971871;28;20122;-78
2023/04/05 06:18:16;;;;;;;13.60;7.40;;;3.80;99.90;;;;;;4965954;28;20046;-78
2023/04/05 06:20:43;;;;;;;10.43;6.00;;;3.90;99.90;;;;;;4967654;28;20034;-76
2023/04/05 06:23:10;;;;;;;11.90;6.78;;;3.80;99.90;;;;;;4974447;28;20041;-76
2023/04/05 06:25:36;;;;;;;13.20;7.55;;;3.90;99.90;;;;;;4972955;28;20029;-77
2023/04/05 06:28:06;;;;;;;13.77;8.32;;;4.10;99.90;;;;;;4974842;28;20027;-76
2023/04/05 06:30:32;;;;;;;14.68;8.43;;;4.10;99.90;;;;;;4972178;28;20031;-77
2023/04/05 06:32:59;;;;;;;17.35;7.85;;;3.90;99.90;;;;;;4974761;28;20027;-77
2023/04/05 06:35:25;;;;;;;13.45;7.65;;;4.00;99.90;;;;;;4970429;28;20448;-77
2023/04/05 06:37:52;;;;;;;15.88;7.00;;;4.10;99.90;;;;;;4964360;28;20027;-77
2023/04/05 06:40:18;;;;;;;14.15;6.80;;;4.00;99.90;;;;;;4973868;28;20038;-78
2023/04/05 06:42:44;;;;;;;13.80;7.05;;;3.90;99.90;;;;;;4974359;28;20066;-77
2023/04/05 06:45:15;;;;;;;12.10;6.32;;;3.90;99.90;;;;;;4954628;28;20062;-77
2023/04/05 06:47:43;;;;;;;13.63;6.13;;;3.90;99.90;;;;;;4972349;28;20062;-78
2023/04/05 06:50:10;;;;;;;12.27;6.25;;;3.90;99.90;;;;;;4972808;28;20431;-78
2023/04/05 06:52:36;;;;;;;10.85;6.70;;;4.10;99.90;;;;;;4976544;28;20423;-77
2023/04/05 06:55:03;;;;;;;13.95;7.72;;;4.10;99.90;;;;;;4974077;28;20035;-77
2023/04/05 06:57:30;;;;;;;12.77;5.93;;;4.10;99.90;;;;;;4973820;28;20486;-78
2023/04/05 06:59:56;;;;;;;15.10;7.35;;;4.30;99.90;;;;;;4972839;28;20391;-77
2023/04/05 07:02:22;;;;;;;12.32;7.00;;;4.20;99.90;;;;;;4973669;28;20039;-77
2023/04/05 07:04:48;;;;;;;12.68;6.55;;;4.40;99.90;;;;;;4973616;28;20541;-76
2023/04/05 07:07:15;;;;;;;13.55;6.50;;;4.30;99.90;;;;;;4973801;28;20026;-77
2023/04/05 07:09:41;;;;;;;10.45;5.57;;;4.50;99.90;;;;;;4971906;28;20497;-72
2023/04/05 07:12:08;;;;;;;10.00;5.13;;;4.40;99.40;;;;;;4968624;28;20023;-75
2023/04/05 07:14:35;;;;;;;15.48;6.47;;;4.60;99.90;;;;;;4965338;28;20496;-76
2023/04/05 07:17:06;;;;;;;14.00;6.25;;;4.80;99.90;;;;;;4973895;28;20430;-75
2023/04/05 07:19:32;;;;;;;10.25;6.60;;;4.90;99.90;;;;;;4960735;28;20383;-77
2023/04/05 07:21:58;;;;;;;10.93;5.00;;;4.60;99.10;;;;;;4973864;28;20031;-73
2023/04/05 07:24:25;;;;;;;12.40;5.97;;;4.80;99.30;;;;;;4973503;28;20382;-75
2023/04/05 07:26:51;;;;;;;14.13;6.88;;;4.70;98.00;;;;;;4973612;28;20030;-75
2023/04/05 07:29:17;;;;;;;14.10;6.88;;;4.60;98.30;;;;;;4971397;28;20502;-78
2023/04/05 07:31:43;;;;;;;14.70;6.80;;;4.70;98.10;;;;;;4973188;28;20033;-77
2023/04/05 07:34:09;;;;;;;13.90;6.72;;;4.50;98.10;;;;;;4973467;28;20434;-78
2023/04/05 07:36:35;;;;;;;10.98;6.05;;;4.50;98.20;;;;;;4973128;28;20106;-78
2023/04/05 07:39:01;;;;;;;12.55;6.72;;;4.50;98.80;;;;;;4971725;28;20023;-73
2023/04/05 07:41:31;;;;;;;13.77;6.47;;;4.70;99.50;;;;;;4966306;28;20038;-77
2023/04/05 07:43:58;;;;;;;12.32;6.47;;;4.80;98.60;;;;;;4973455;28;20581;-78
2023/04/05 07:46:24;;;;;;;14.60;7.55;;;4.60;98.30;;;;;;4969367;28;20237;-78
2023/04/05 07:48:49;;;;;;;11.60;6.35;;;4.60;96.90;;;;;;4965494;28;20403;-78
2023/04/05 07:51:15;;;;;;;13.55;5.90;;;4.80;98.10;;;;;;4966469;28;20033;-77
2023/04/05 07:53:41;;;;;;;17.08;8.27;;;5.00;98.00;;;;;;4969219;28;20474;-72
2023/04/05 07:56:13;;;;;;;13.57;7.78;;;5.00;98.00;;;;;;4968081;28;20097;-75
2023/04/05 07:58:40;;;;;;;17.33;8.20;;;5.20;97.10;;;;;;4971954;28;20501;-78
2023/04/05 08:01:07;;;;;;;14.45;8.10;;;5.40;96.50;;;;;;4971284;28;20450;-78
2023/04/05 08:03:34;;;;;;;18.10;8.98;;;5.50;96.40;;;;;;4969078;28;20038;-72
2023/04/05 08:06:16;;;;;;;22.27;10.65;;;5.80;97.50;;;;;;4969535;28;20025;-77
2023/04/05 08:08:42;;;;;;;14.05;6.55;;;6.00;97.30;;;;;;4973109;28;20034;-77
2023/04/05 08:11:08;;;;;;;13.77;7.32;;;5.70;98.40;;;;;;4972901;28;20398;-78
2023/04/05 08:13:37;;;;;;;14.60;7.40;;;5.80;96.70;;;;;;4973065;28;20027;-78
2023/04/05 08:16:03;;;;;;;15.73;8.55;;;5.70;96.90;;;;;;4972516;28;20118;-74
2023/04/05 08:18:29;;;;;;;12.05;7.45;;;5.70;97.00;;;;;;4973132;28;20419;-78
2023/04/05 08:20:56;;;;;;;11.13;6.10;;;5.90;97.80;;;;;;4972866;28;20030;-79
2023/04/05 08:23:22;;;;;;;10.18;6.07;;;5.80;94.80;;;;;;4968978;28;20023;-77
2023/04/05 08:25:49;;;;;;;14.60;6.47;;;5.80;97.10;;;;;;4972425;28;20034;-77
2023/04/05 08:28:15;;;;;;;14.45;6.63;;;6.00;97.80;;;;;;4972953;28;20019;-78
2023/04/05 08:30:41;;;;;;;12.60;5.75;;;6.10;96.00;;;;;;4972517;28;20395;-78
2023/04/05 08:33:10;;;;;;;13.85;7.03;;;5.80;95.60;;;;;;4972862;28;20030;-78
2023/04/05 08:35:36;;;;;;;10.85;6.50;;;6.10;95.00;;;;;;4960481;28;20058;-77
2023/04/05 08:38:06;;;;;;;14.93;7.20;;;6.00;93.80;;;;;;4972786;28;20022;-74
2023/04/05 08:40:43;;;;;;;11.40;6.15;;;6.00;95.10;;;;;;4971048;28;20034;-77
2023/04/05 08:43:15;;;;;;;11.93;6.78;;;6.00;94.60;;;;;;4951841;28;20030;-78
2023/04/05 08:45:50;;;;;;;13.05;6.63;;;6.00;96.40;;;;;;4972215;28;20097;-72
2023/04/05 08:48:16;;;;;;;15.75;7.63;;;5.70;96.90;;;;;;4971167;28;20038;-77
2023/04/05 08:50:50;;;;;;;14.40;6.65;;;5.60;95.70;;;;;;4967467;28;20027;-76
2023/04/05 08:53:16;;;;;;;12.48;6.18;;;5.60;94.80;;;;;;4968603;28;20031;-77
2023/04/05 08:55:42;;;;;;;12.25;6.07;;;5.80;95.70;;;;;;4972330;28;20431;-77
2023/04/05 08:58:13;;;;;;;11.90;6.78;;;6.20;95.70;;;;;;4972657;28;20478;-77
2023/04/05 09:00:40;;;;;;;9.60;5.57;;;6.30;96.70;;;;;;4968333;28;20055;-72
2023/04/05 09:03:11;;;;;;;10.70;5.55;;;6.20;94.10;;;;;;4955504;28;20022;-77
2023/04/05 09:05:39;;;;;;;14.05;6.72;;;6.10;92.80;;;;;;4971193;28;20045;-77
2023/04/05 09:08:06;;;;;;;11.52;6.25;;;6.20;94.00;;;;;;4974894;28;20015;-77
2023/04/05 09:10:32;;;;;;;12.75;6.40;;;6.20;94.70;;;;;;4971538;28;20406;-77
2023/04/05 09:12:59;;;;;;;15.13;6.82;;;6.30;93.80;;;;;;4975540;28;20098;-77
2023/04/05 09:15:25;;;;;;;12.00;6.85;;;6.40;94.40;;;;;;4975911;28;20438;-77
2023/04/05 09:17:53;;;;;;;12.93;7.43;;;6.60;95.00;;;;;;4975685;28;20018;-72
2023/04/05 09:20:19;;;;;;;10.88;6.43;;;6.50;93.00;;;;;;4975681;28;20042;-70
2023/04/05 09:22:46;;;;;;;11.95;5.70;;;6.60;94.50;;;;;;4976028;28;20023;-75
2023/04/05 09:25:32;;;;;;;12.52;5.95;;;6.20;94.30;;;;;;4975610;28;20031;-71
2023/04/05 09:27:58;;;;;;;10.30;5.95;;;6.30;93.80;;;;;;4975070;28;20113;-76
2023/04/05 09:30:26;;;;;;;9.65;6.40;;;6.50;96.10;;;;;;4967932;28;20638;-75
2023/04/05 09:32:54;;;;;;;11.15;6.45;;;6.70;96.60;;;;;;4963663;28;20486;-71
2023/04/05 09:35:30;;;;;;;12.27;6.68;;;6.90;95.60;;;;;;4973424;28;20168;-74
2023/04/05 09:38:00;;;;;;;13.10;6.85;;;6.90;95.80;;;;;;4961713;28;20398;-74
2023/04/05 09:40:44;;;;;;;11.45;5.78;;;6.60;94.80;;;;;;4957688;28;20031;-72
2023/04/05 09:43:33;;;;;;;15.90;7.50;;;6.60;94.80;;;;;;4975290;28;20026;-74
2023/04/05 09:46:00;;;;;;;10.20;5.85;;;6.60;95.80;;;;;;4972825;28;20043;-76
2023/04/05 09:48:47;;;;;;;13.93;7.57;;;6.30;93.90;;;;;;4965785;28;20066;-72
2023/04/05 09:51:17;;;;;;;12.10;6.30;;;6.60;95.80;;;;;;4972301;28;20038;-75
2023/04/05 09:54:03;;;;;;;11.25;6.45;;;6.30;93.70;;;;;;4968847;28;20027;-74
2023/04/05 09:56:37;;;;;;;17.65;8.68;;;6.10;95.60;;;;;;4966341;28;20447;-75
2023/04/05 09:59:10;;;;;;;12.10;7.10;;;6.20;95.60;;;;;;4969263;28;20031;-75
2023/04/05 10:01:37;;;;;;;13.07;6.50;;;6.10;95.20;;;;;;4974712;28;20039;-71
2023/04/05 10:04:03;;;;;;;14.63;6.85;;;6.30;93.90;;;;;;4974768;28;20022;-75
2023/04/05 10:06:41;;;;;;;13.63;5.90;;;6.40;95.80;;;;;;4969953;28;20030;-73
2023/04/05 10:09:10;;;;;;;11.68;7.00;;;6.40;92.80;;;;;;4972426;28;20022;-74
2023/04/05 10:11:37;;;;;;;15.00;7.35;;;6.30;93.10;;;;;;4968625;28;20387;-72
2023/04/05 10:14:05;;;;;;;14.65;6.47;;;6.30;93.30;;;;;;4970762;28;20470;-75
2023/04/05 10:17:02;;;;;;;15.25;6.63;;;6.40;92.10;;;;;;4967231;28;20454;-73
2023/04/05 10:19:36;;;;;;;13.73;6.80;;;6.50;92.30;;;;;;4932531;29;20500;-76
2023/04/05 10:22:03;;;;;;;12.05;7.05;;;6.60;93.30;;;;;;4934102;29;20050;-74
2023/04/05 10:24:46;;;;;;;11.32;6.38;;;6.70;93.50;;;;;;4934270;29;20036;-71
2023/04/05 10:27:38;;;;;;;14.25;7.18;;;6.60;93.70;;;;;;4933907;29;20064;-75
2023/04/05 10:30:07;;;;;;;11.77;6.00;;;6.50;94.00;;;;;;4933940;29;20482;-74
2023/04/05 10:32:45;;;;;;;15.25;8.27;;;6.30;93.20;;;;;;4934189;29;20036;-75
2023/04/05 10:35:27;;;;;;;14.75;8.73;;;6.50;94.10;;;;;;4933997;29;20056;-75
2023/04/05 10:38:08;;;;;;;12.07;7.10;;;6.40;94.20;;;;;;4933805;29;20054;-72
2023/04/05 10:40:36;;;;;;;11.73;6.82;;;6.30;94.50;;;;;;4934051;29;20046;-72
2023/04/05 10:43:06;;;;;;;13.30;7.05;;;6.20;94.80;;;;;;4933596;29;20031;-73
2023/04/05 10:45:33;;;;;;;15.75;8.00;;;6.40;94.00;;;;;;4933541;29;20052;-71
2023/04/05 10:48:08;;;;;;;12.80;7.20;;;6.50;93.50;;;;;;4933511;29;20091;-73
2023/04/05 10:50:36;;;;;;;11.23;6.20;;;6.50;94.90;;;;;;4940081;29;20043;-73
2023/04/05 10:53:02;;;;;;;12.85;6.43;;;6.50;93.00;;;;;;4939767;29;20508;-71
2023/04/05 10:55:29;;;;;;;11.43;6.25;;;6.50;95.60;;;;;;4938157;28;20480;-73
2023/04/05 10:57:56;;;;;;;12.85;7.13;;;6.40;93.10;;;;;;4973958;28;20030;-74
2023/04/05 11:00:23;;;;;;;16.67;7.68;;;6.50;93.70;;;;;;4973863;28;20188;-72
2023/04/05 11:02:54;;;;;;;15.77;8.00;;;6.40;95.30;;;;;;4973403;28;20034;-73
2023/04/05 11:05:35;;;;;;;13.30;7.07;;;6.40;93.90;;;;;;4973654;28;20113;-73
2023/04/05 11:08:10;;;;;;;13.20;7.53;;;6.40;94.20;;;;;;4973332;28;20089;-70
2023/04/05 11:10:38;;;;;;;11.35;6.55;;;6.30;93.60;;;;;;4973695;28;20116;-73
2023/04/05 11:13:12;;;;;;;13.43;7.95;;;6.20;94.00;;;;;;4973819;28;20019;-74
2023/04/05 11:15:38;;;;;;;11.43;6.70;;;6.20;93.10;;;;;;4973350;28;20035;-72
2023/04/05 11:18:04;;;;;;;11.82;6.53;;;6.30;93.90;;;;;;4973644;28;20089;-75
2023/04/05 11:20:40;;;;;;;10.38;6.65;;;6.30;94.70;;;;;;4973208;28;20475;-75
2023/04/05 11:23:06;;;;;;;12.18;6.57;;;6.40;96.60;;;;;;4973262;28;20027;-75
2023/04/05 11:25:38;;;;;;;11.55;7.15;;;6.40;96.90;;;;;;4973152;28;20493;-75
2023/04/05 11:28:10;;;;;;;11.63;5.97;;;6.50;94.10;;;;;;4960873;28;20497;-72
2023/04/05 11:30:50;;;;;;;14.32;7.25;;;6.50;94.00;;;;;;4972945;28;20026;-75
2023/04/05 11:33:35;;;;;;;12.00;6.63;;;6.60;94.90;;;;;;4973297;28;20033;-75
2023/04/05 11:36:01;;;;;;;12.60;6.78;;;6.60;93.20;;;;;;4973124;28;20041;-75
2023/04/05 11:38:27;;;;;;;12.85;7.53;;;6.60;95.50;;;;;;4973148;28;20023;-75
2023/04/05 11:41:10;;;;;;;14.20;7.43;;;6.70;94.30;;;;;;4972940;28;20364;-75
2023/04/05 11:43:41;;;;;;;12.68;6.82;;;6.70;94.20;;;;;;4973039;28;20018;-75
2023/04/05 11:46:08;;;;;;;21.15;8.57;;;6.60;94.40;;;;;;4973831;28;20372;-75
2023/04/05 11:48:35;;;;;;;14.50;7.78;;;6.60;94.20;;;;;;4972959;28;20033;-75
2023/04/05 11:51:11;;;;;;;14.00;7.57;;;6.50;93.70;;;;;;4973178;28;20430;-75
2023/04/05 11:53:37;;;;;;;14.13;7.63;;;6.40;92.70;;;;;;4973019;28;20031;-74
2023/04/05 11:56:14;;;;;;;13.38;6.80;;;6.40;93.10;;;;;;4971602;28;20057;-73
2023/04/05 11:58:42;;;;;;;13.73;6.38;;;6.30;94.30;;;;;;4972964;28;20031;-72
2023/04/05 12:01:08;;;;;;;11.90;6.50;;;6.30;93.00;;;;;;4972841;28;20026;-72
2023/04/05 12:03:37;;;;;;;12.52;6.65;;;6.30;93.60;;;;;;4973181;28;20093;-73
2023/04/05 12:06:05;;;;;;;18.02;8.02;;;6.30;93.20;;;;;;4972373;28;20019;-74
2023/04/05 12:08:48;;;;;;;12.40;7.53;;;6.30;93.90;;;;;;4973085;28;20049;-72
2023/04/05 12:11:15;;;;;;;17.38;8.85;;;6.40;94.40;;;;;;4973011;28;20109;-73
2023/04/05 12:13:44;;;;;;;11.85;6.47;;;6.40;94.30;;;;;;4972529;28;20459;-74
2023/04/05 12:16:10;;;;;;;18.15;9.35;;;6.30;94.40;;;;;;4972763;28;20136;-70
2023/04/05 12:18:36;;;;;;;13.23;7.28;;;6.30;94.90;;;;;;4972754;28;20118;-70
2023/04/05 12:21:10;;;;;;;14.90;7.55;;;6.30;95.30;;;;;;4972951;28;20065;-70
2023/04/05 12:23:36;;;;;;;14.10;7.28;;;6.30;95.20;;;;;;4972687;28;20089;-76
2023/04/05 12:26:05;;;;;;;15.07;8.85;;;6.30;94.80;;;;;;4972843;28;20048;-72
2023/04/05 12:28:53;;;;;;;15.88;7.57;;;6.40;95.00;;;;;;4972136;28;20379;-75
2023/04/05 12:31:41;;;;;;;13.82;8.55;;;6.40;96.80;;;;;;4972349;28;20037;-73
2023/04/05 12:34:08;;;;;;;15.00;7.75;;;6.40;96.10;;;;;;4961156;28;20026;-73
2023/04/05 12:36:35;;;;;;;24.60;12.20;;;6.50;96.30;;;;;;4974619;28;20068;-73
2023/04/05 12:39:06;;;;;;;20.58;11.65;;;6.40;93.40;;;;;;4976374;28;20118;-74
2023/04/05 12:41:33;;;;;;;19.27;10.98;;;6.40;93.40;;;;;;4976261;28;20058;-75
2023/04/05 12:44:04;;;;;;;18.17;7.10;;;6.40;93.40;;;;;;4976056;28;20055;-72
2023/04/05 12:46:40;;;;;;;16.33;9.75;;;6.50;92.70;;;;;;4975878;28;20034;-75
2023/04/05 12:49:10;;;;;;;11.18;6.70;;;6.60;92.70;;;;;;4976086;28;20038;-74
2023/04/05 12:51:42;;;;;;;21.65;10.82;;;6.60;94.60;;;;;;4975941;28;20034;-73
2023/04/05 12:54:10;;;;;;;14.85;8.13;;;6.70;93.70;;;;;;4976264;28;20026;-72
2023/04/05 12:56:37;;;;;;;14.65;8.07;;;6.80;94.10;;;;;;4975625;28;20039;-74
2023/04/05 12:59:06;;;;;;;18.83;9.88;;;7.00;93.70;;;;;;4975835;28;20023;-74
2023/04/05 13:01:32;;;;;;;16.13;9.00;;;7.20;93.40;;;;;;4975386;28;20043;-72
2023/04/05 13:04:03;;;;;;;13.70;6.60;;;7.10;92.70;;;;;;4975787;28;20050;-73
2023/04/05 13:06:31;;;;;;;13.48;7.25;;;7.00;92.80;;;;;;4973106;28;20023;-74
2023/04/05 13:08:56;;;;;;;15.43;8.23;;;6.80;92.00;;;;;;4964058;28;20089;-73
2023/04/05 13:11:25;;;;;;;14.90;8.15;;;6.50;91.90;;;;;;4974485;28;20019;-74
2023/04/05 13:13:51;;;;;;;14.80;7.50;;;6.50;93.00;;;;;;4962560;28;20035;-72